Time;durP1;ratioP1;P1;durP2;ratioP2;P2;SDS_P1;SDS_P2;PMS_P1;PMS_P2;Temp;Humidity;BMP_temperature;BMP_pressure;BME280_temperature;BME280_humidity;BME280_pressure;Samples;Min_cycle;Max_cycle;Signal;HPM_P1;HPM_P2
2023/03/12 00:01:32;;;;;;;;;;;;;;;-145.06;100.00;60892.56;5948451;23;19908;-92
2023/03/12 00:04:13;;;;;;;;;;;;;;;-145.06;100.00;60892.56;5948203;23;19909;-92
2023/03/12 00:06:57;;;;;;;;;;;;;;;-145.06;100.00;60892.56;5948125;23;19913;-92
2023/03/12 00:09:39;;;;;;;;;;;;;;;-145.06;100.00;60892.56;5947539;23;19909;-91
2023/03/12 00:12:20;;;;;;;;;;;;;;;-145.06;100.00;60892.56;5967746;23;19964;-92
2023/03/12 00:15:04;;;;;;;;;;;;;;;-145.06;100.00;60892.56;5963043;23;20332;-92
2023/03/12 00:17:51;;;;;;;;;;;;;;;-145.06;100.00;60892.56;5948363;23;19912;-92
2023/03/12 00:20:36;;;;;;;;;;;;;;;-145.06;100.00;60892.56;5948434;23;19913;-91
2023/03/12 00:23:15;;;;;;;;;;;;;;;-145.06;100.00;60892.56;5948814;23;19912;-93
2023/03/12 00:26:05;;;;;;;;;;;;;;;-145.06;100.00;60892.56;5948251;23;19909;-92
2023/03/12 00:28:50;;;;;;;;;;;;;;;-145.06;100.00;60892.56;5947576;23;19943;-91
2023/03/12 00:31:33;;;;;;;;;;;;;;;-145.06;100.00;60892.56;5948023;23;19909;-91
2023/03/12 00:34:15;;;;;;;;;;;;;;;-145.06;100.00;60892.56;5947736;23;19908;-93
2023/03/12 00:37:08;;;;;;;;;;;;;;;-145.06;100.00;60892.56;5947190;23;19913;-92
2023/03/12 00:39:47;;;;;;;;;;;;;;;-145.06;100.00;60892.56;5947588;23;19909;-92
2023/03/12 00:42:32;;;;;;;;;;;;;;;-145.06;100.00;60892.56;5947541;23;20264;-95
2023/03/12 00:45:38;;;;;;;;;;;;;;;-145.06;100.00;60892.56;5947767;23;19909;-92
2023/03/12 00:48:26;;;;;;;;;;;;;;;-145.06;100.00;60892.56;5947312;23;19948;-91
2023/03/12 00:51:13;;;;;;;;;;;;;;;-145.06;100.00;60892.56;5947070;23;19913;-91
2023/03/12 00:54:00;;;;;;;;;;;;;;;-145.06;100.00;60892.56;5947448;23;19909;-91
2023/03/12 00:56:46;;;;;;;;;;;;;;;-145.06;100.00;60892.56;5946890;23;19913;-92
2023/03/12 00:59:30;;;;;;;;;;;;;;;-145.06;100.00;60892.56;5947910;23;19920;-92
2023/03/12 01:02:11;;;;;;;;;;;;;;;-145.06;100.00;60892.56;5946885;23;19909;-91
2023/03/12 01:04:54;;;;;;;;;;;;;;;-145.06;100.00;60892.56;5948061;23;20332;-93
2023/03/12 01:07:35;;;;;;;;;;;;;;;-145.06;100.00;60892.56;5947827;23;19909;-93
2023/03/12 01:10:18;;;;;;;;;;;;;;;-145.06;100.00;60892.56;5947749;23;19908;-93
2023/03/12 01:13:00;;;;;;;;;;;;;;;-145.06;100.00;60892.56;5947918;23;19909;-91
2023/03/12 01:15:59;;;;;;;;;;;;;;;-145.06;100.00;60892.56;5947989;23;19913;-92
2023/03/12 01:18:41;;;;;;;;;;;;;;;-145.06;100.00;60892.56;5947344;23;19909;-91
2023/03/12 01:21:28;;;;;;;;;;;;;;;-145.06;100.00;60892.56;5948135;23;19936;-92
2023/03/12 01:24:13;;;;;;;;;;;;;;;-145.06;100.00;60892.56;5947635;23;19908;-91
2023/03/12 01:26:57;;;;;;;;;;;;;;;-145.06;100.00;60892.56;5947783;23;20544;-91
2023/03/12 01:29:47;;;;;;;;;;;;;;;-145.06;100.00;60892.56;5947840;23;19908;-92
2023/03/12 01:32:37;;;;;;;;;;;;;;;-145.06;100.00;60892.56;5946310;23;20120;-92
2023/03/12 01:35:23;;;;;;;;;;;;;;;-145.06;100.00;60892.56;5948241;23;19909;-92
2023/03/12 01:38:07;;;;;;;;;;;;;;;-145.06;100.00;60892.56;5947047;23;19913;-92
2023/03/12 01:40:49;;;;;;;;;;;;;;;-145.06;100.00;60892.56;5947176;23;19983;-93
2023/03/12 01:43:29;;;;;;;;;;;;;;;-145.06;100.00;60892.56;5946914;23;19909;-92
2023/03/12 01:46:15;;;;;;;;;;;;;;;-145.06;100.00;60892.56;5947650;23;19908;-92
2023/03/12 01:49:21;;;;;;;;;;;;;;;-145.06;100.00;60892.56;5947408;23;20261;-90
2023/03/12 01:52:07;;;;;;;;;;;;;;;-145.06;100.00;60892.56;5947094;23;19908;-93
2023/03/12 01:55:08;;;;;;;;;;;;;;;-145.06;100.00;60892.56;5947923;23;19908;-93
2023/03/12 01:57:49;;;;;;;;;;;;;;;-145.06;100.00;60892.56;5946900;23;19912;-92
2023/03/12 02:00:28;;;;;;;;;;;;;;;-145.06;100.00;60892.56;5947525;23;19909;-91
2023/03/12 02:03:14;;;;;;;;;;;;;;;-145.06;100.00;60892.56;5947850;23;19908;-92
2023/03/12 02:06:09;;;;;;;;;;;;;;;-145.06;100.00;60892.56;5946928;23;19948;-93
2023/03/12 02:08:49;;;;;;;;;;;;;;;-145.06;100.00;60892.56;5949513;23;19909;-92
2023/03/12 02:11:31;;;;;;;;;;;;;;;-145.06;100.00;60892.56;5949242;23;19909;-92
2023/03/12 02:14:10;;;;;;;;;;;;;;;-145.06;100.00;60892.56;5949662;23;19908;-90
2023/03/12 02:16:49;;;;;;;;;;;;;;;-145.06;100.00;60892.56;5949783;23;20324;-93
2023/03/12 02:19:38;;;;;;;;;;;;;;;-145.06;100.00;60892.56;5949607;23;19908;-91
2023/03/12 02:22:17;;;;;;;;;;;;;;;-145.06;100.00;60892.56;5948612;23;19912;-92
2023/03/12 02:25:02;;;;;;;;;;;;;;;-145.06;100.00;60892.56;5949177;23;20174;-92
2023/03/12 02:27:41;;;;;;;;;;;;;;;-145.06;100.00;60892.56;5949105;23;19936;-91
2023/03/12 02:30:20;;;;;;;;;;;;;;;-145.06;100.00;60892.56;5949225;23;19909;-92
2023/03/12 02:33:03;;;;;;;;;;;;;;;-145.06;100.00;60892.56;5948967;23;19909;-91
2023/03/12 02:35:44;;;;;;;;;;;;;;;-145.06;100.00;60892.56;5948528;23;19913;-92
2023/03/12 02:38:42;;;;;;;;;;;;;;;-145.06;100.00;60892.56;5948288;23;20331;-92
2023/03/12 02:41:33;;;;;;;;;;;;;;;-145.06;100.00;60892.56;5948673;23;19908;-92
2023/03/12 02:44:15;;;;;;;;;;;;;;;-145.06;100.00;60892.56;5948684;23;19944;-92
2023/03/12 02:46:57;;;;;;;;;;;;;;;-145.06;100.00;60892.56;5948433;23;19968;-91
2023/03/12 02:49:38;;;;;;;;;;;;;;;-145.06;100.00;60892.56;5949416;23;19908;-92
2023/03/12 02:52:17;;;;;;;;;;;;;;;-145.06;100.00;60892.56;5948528;23;19913;-94
2023/03/12 02:54:59;;;;;;;;;;;;;;;-145.06;100.00;60892.56;5949388;23;19909;-93
2023/03/12 02:57:42;;;;;;;;;;;;;;;-145.06;100.00;60892.56;5949087;23;20324;-92
2023/03/12 03:00:22;;;;;;;;;;;;;;;-145.06;100.00;60892.56;5949131;23;19940;-93
2023/03/12 03:03:03;;;;;;;;;;;;;;;-145.06;100.00;60892.56;5968937;23;19908;-93
2023/03/12 03:05:57;;;;;;;;;;;;;;;-145.06;100.00;60892.56;5979766;23;19920;-91
2023/03/12 03:08:36;;;;;;;;;;;;;;;-145.06;100.00;60892.56;5985610;23;19987;-93
2023/03/12 03:11:27;;;;;;;;;;;;;;;-145.06;100.00;60892.56;5985113;23;19908;-92
2023/03/12 03:14:09;;;;;;;;;;;;;;;-145.06;100.00;60892.56;6017802;23;20196;-91
2023/03/12 03:16:51;;;;;;;;;;;;;;;-145.06;100.00;60892.56;5984723;23;19999;-93
2023/03/12 03:19:32;;;;;;;;;;;;;;;-145.06;100.00;60892.56;5985514;23;19908;-93
2023/03/12 03:25:37;;;;;;;;;;;;;;;-145.06;100.00;60892.56;6017107;23;20323;-92
2023/03/12 03:28:23;;;;;;;;;;;;;;;-145.06;100.00;60892.56;5984884;23;20350;-92
2023/03/12 03:31:12;;;;;;;;;;;;;;;-145.06;100.00;60892.56;5985109;23;19907;-93
2023/03/12 03:34:12;;;;;;;;;;;;;;;-145.06;100.00;60892.56;5985130;23;19908;-93
2023/03/12 03:37:04;;;;;;;;;;;;;;;-145.06;100.00;60892.56;5984329;23;19912;-92
2023/03/12 03:39:52;;;;;;;;;;;;;;;-145.06;100.00;60892.56;5984565;23;19912;-91
2023/03/12 03:42:35;;;;;;;;;;;;;;;-145.06;100.00;60892.56;5985281;23;19931;-94
2023/03/12 03:45:16;;;;;;;;;;;;;;;-145.06;100.00;60892.56;5983238;23;19908;-92
2023/03/12 03:48:03;;;;;;;;;;;;;;;-145.06;100.00;60892.56;5983821;23;19908;-92
2023/03/12 03:54:29;;;;;;;;;;;;;;;-145.06;100.00;60892.56;6016603;23;19927;-92
2023/03/12 03:57:45;;;;;;;;;;;;;;;;;;;;;
2023/03/12 04:01:06;;;;;;;;;;;;;;;;;;;;;
2023/03/12 04:04:13;;;;;;;;;;;;;;;-145.06;100.00;60892.56;5961457;23;19983;-93
2023/03/12 06:37:18;;;;;;;;;;;;;;;;;;;;;
2023/03/12 06:54:28;;;;;;;;;;;;;;;;;;;;;
2023/03/12 07:00:04;;;;;;;;;;;;;;;-145.06;100.00;60892.56;6019783;23;20245;-92
2023/03/12 09:22:54;;;;;;;;;;;;;;;;;;;;;
2023/03/12 09:55:11;;;;;;;;;;;;;;;-145.06;100.00;60892.56;6001710;22;20003;-92
2023/03/12 09:57:50;;;;;;;;;;;;;;;-145.06;100.00;60892.56;6006751;23;19916;-92
2023/03/12 10:00:34;;;;;;;;;;;;;;;-145.06;100.00;60892.56;5984394;23;19908;-92
2023/03/12 10:03:42;;;;;;;;;;;;;;;-145.06;100.00;60892.56;5984932;23;20148;-90
2023/03/12 10:06:37;;;;;;;;;;;;;;;-145.06;100.00;60892.56;5970151;23;19908;-91
2023/03/12 10:09:50;;;;;;;;;;;;;;;-145.06;100.00;60892.56;5985621;23;19908;-90
2023/03/12 10:12:41;;;;;;;;;;;;;;;-145.06;100.00;60892.56;5985042;23;19912;-91
2023/03/12 10:15:44;;;;;;;;;;;;;;;-145.06;100.00;60892.56;5984879;23;19928;-91
2023/03/12 10:18:36;;;;;;;;;;;;;;;;;;;;;
2023/03/12 10:21:28;;;;;;;;;;;;;;;-145.06;100.00;60892.56;6016990;23;20327;-91
2023/03/12 10:24:32;;;;;;;;;;;;;;;-145.06;100.00;60892.56;5985342;23;19912;-92
2023/03/12 11:16:29;;;;;;;;;;;;;;;-145.06;100.00;60892.56;6019726;23;19912;-94
2023/03/12 11:28:20;;;;;;;;;;;;;;;-145.06;100.00;60892.56;6021038;23;19982;-96
2023/03/12 11:31:12;;;;;;;;;;;;;;;-145.06;100.00;60892.56;5987495;23;19908;-94
2023/03/12 12:25:20;;;;;;;;;;;;;;;-145.06;100.00;60892.56;5993895;22;19920;-92
2023/03/12 12:28:28;;;;;;;;;;;;;;;;;;;;;
2023/03/12 12:45:16;;;;;;;;;;;;;;;;;;;;;
2023/03/12 13:18:04;;;;;;;;;;;;;;;-145.06;100.00;60892.56;5843942;23;19997;-92
2023/03/12 13:21:06;;;;;;;;;;;;;;;-145.06;100.00;60892.56;5818772;23;20513;-91
2023/03/12 13:24:17;;;;;;;;;;;;;;;-145.06;100.00;60892.56;5963161;23;19986;-92
2023/03/12 13:30:32;;;;;;;;;;;;;;;-145.06;100.00;60892.56;6017421;23;19908;-92
2023/03/12 13:36:48;;;;;;;;;;;;;;;-145.06;100.00;60892.56;6014806;23;19912;-92
2023/03/12 13:39:36;;;;;;;;;;;;;;;-145.06;100.00;60892.56;5985264;23;19908;-92
2023/03/12 13:42:22;;;;;;;;;;;;;;;-145.06;100.00;60892.56;5985292;23;19935;-92
2023/03/12 13:45:22;;;;;;;;;;;;;;;-145.06;100.00;60892.56;5985355;23;20208;-92
2023/03/12 13:48:02;;;;;;;;;;;;;;;-145.06;100.00;60892.56;5985035;23;19908;-92
2023/03/12 13:51:18;;;;;;;;;;;;;;;-145.06;100.00;60892.56;6016905;23;19911;-93
2023/03/12 13:54:16;;;;;;;;;;;;;;;-145.06;100.00;60892.56;6007478;23;20390;-93
2023/03/12 14:00:04;;;;;;;;;;;;;;;-145.06;100.00;60892.56;6017716;23;19907;-92
2023/03/12 14:02:53;;;;;;;;;;;;;;;-145.06;100.00;60892.56;5985169;23;19908;-92
2023/03/12 14:09:23;;;;;;;;;;;;;;;-145.06;100.00;60892.56;6010076;23;19908;-92
2023/03/12 14:12:28;;;;;;;;;;;;;;;;;;;;;
2023/03/12 14:15:20;;;;;;;;;;;;;;;-145.06;100.00;60892.56;6018802;23;19908;-93
2023/03/12 14:18:25;;;;;;;;;;;;;;;-145.06;100.00;60892.56;5986157;23;19912;-92
2023/03/12 14:21:07;;;;;;;;;;;;;;;-145.06;100.00;60892.56;5986599;23;19908;-93
2023/03/12 14:24:12;;;;;;;;;;;;;;;-145.06;100.00;60892.56;5986398;23;19939;-93
2023/03/12 14:26:58;;;;;;;;;;;;;;;-145.06;100.00;60892.56;5969182;23;19912;-92
2023/03/12 14:29:42;;;;;;;;;;;;;;;-145.06;100.00;60892.56;5987294;23;19908;-92
2023/03/12 14:32:35;;;;;;;;;;;;;;;-145.06;100.00;60892.56;5986882;23;19908;-92
2023/03/12 14:58:41;;;;;;;;;;;;;;;-145.06;100.00;60892.56;6015410;23;19912;-92
2023/03/12 15:05:28;;;;;;;;;;;;;;;;;;;;;
2023/03/12 15:08:21;;;;;;;;;;;;;;;-145.06;100.00;60892.56;6018604;23;19908;-94
2023/03/12 15:29:25;;;;;;;;;;;;;;;-145.06;100.00;60892.56;5977058;22;19935;-94
2023/03/12 15:39:00;;;;;;;;;;;;;;;-145.06;100.00;60892.56;5964597;22;20272;-90
2023/03/12 15:45:39;;;;;;;;;;;;;;;-145.06;100.00;60892.56;5900474;23;19909;-94
2023/03/12 15:52:26;;;;;;;;;;;;;;;-145.06;100.00;60892.56;5986284;23;20343;-93
2023/03/12 15:55:26;;;;;;;;;;;;;;;-145.06;100.00;60892.56;5955923;23;19908;-96
2023/03/12 16:01:48;;;;;;;;;;;;;;;-145.06;100.00;60892.56;5990420;23;19907;-93
2023/03/12 16:21:14;;;;;;;;;;;;;;;-145.06;100.00;60892.56;6002905;22;20129;-91
2023/03/12 16:27:18;;;;;;;;;;;;;;;-145.06;100.00;60892.56;6017765;23;19908;-92
2023/03/12 16:36:47;;;;;;;;;;;;;;;-145.06;100.00;60892.56;5972295;23;19912;-92
2023/03/12 16:39:32;;;;;;;;;;;;;;;-145.06;100.00;60892.56;5956374;23;19908;-91
2023/03/12 16:42:37;;;;;;;;;;;;;;;-145.06;100.00;60892.56;5956329;23;19932;-91
2023/03/12 16:45:20;;;;;;;;;;;;;;;-145.06;100.00;60892.56;5977396;23;19908;-92
2023/03/12 16:48:22;;;;;;;;;;;;;;;-145.06;100.00;60892.56;5956480;23;19908;-92
2023/03/12 16:51:27;;;;;;;;;;;;;;;-145.06;100.00;60892.56;5956442;23;19908;-92
2023/03/12 16:54:19;;;;;;;;;;;;;;;-145.06;100.00;60892.56;5956749;23;20208;-92
2023/03/12 17:00:19;;;;;;;;;;;;;;;-145.06;100.00;60892.56;5989489;22;19974;-92
2023/03/12 17:38:18;;;;;;;;;;;;;;;-145.06;100.00;60892.56;5979868;22;19927;-93
2023/03/12 17:44:10;;;;;;;;;;;;;;;-145.06;100.00;60892.56;6015895;23;19908;-94
2023/03/12 17:46:52;;;;;;;;;;;;;;;-145.06;100.00;60892.56;5984647;23;19931;-93
2023/03/12 17:49:37;;;;;;;;;;;;;;;-145.06;100.00;60892.56;5985391;23;19990;-93
2023/03/12 17:52:51;;;;;;;;;;;;;;;;;;;;;
2023/03/12 23:54:36;;;;;;;;;;;;;;;;;;;;;
